createdAt,value
2019-02-18T00:00:39.782Z,7.05
2019-02-18T00:01:39.777Z,7.00
2019-02-18T00:02:39.745Z,7.03
2019-02-18T00:03:39.767Z,7.02
2019-02-18T00:04:39.740Z,7.06
2019-02-18T00:05:39.717Z,7.03
2019-02-18T00:06:39.720Z,6.92
2019-02-18T00:07:39.772Z,7.02
2019-02-18T00:08:39.689Z,7.00
2019-02-18T00:09:39.677Z,6.92
2019-02-18T00:10:39.685Z,6.88
2019-02-18T00:11:39.650Z,6.88
2019-02-18T00:12:39.667Z,6.97
2019-02-18T00:13:39.636Z,6.89
2019-02-18T00:14:39.619Z,6.88
2019-02-18T00:15:39.623Z,6.84
2019-02-18T00:16:39.600Z,6.79
2019-02-18T00:17:39.621Z,6.77
2019-02-18T00:18:39.582Z,6.77
2019-02-18T00:19:39.567Z,6.82
2019-02-18T00:20:39.562Z,6.81
2019-02-18T00:21:39.541Z,6.84
2019-02-18T00:22:39.528Z,6.72
2019-02-18T00:23:39.532Z,6.78
2019-02-18T00:24:39.522Z,6.64
2019-02-18T00:25:39.497Z,6.69
2019-02-18T00:26:39.483Z,6.67
2019-02-18T00:27:39.483Z,6.77
2019-02-18T00:28:39.497Z,6.62
2019-02-18T00:29:39.455Z,6.77
2019-02-18T00:30:39.463Z,6.69
2019-02-18T00:31:39.434Z,6.70
2019-02-18T00:32:39.416Z,6.70
2019-02-18T00:33:39.409Z,6.70
2019-02-18T00:34:39.415Z,6.67
2019-02-18T00:35:39.451Z,6.72
2019-02-18T00:36:39.401Z,6.77
2019-02-18T00:37:39.367Z,6.78
2019-02-18T00:38:39.374Z,6.85
2019-02-18T00:39:39.343Z,6.79
2019-02-18T00:40:39.340Z,6.79
2019-02-18T00:41:39.323Z,6.78
2019-02-18T00:42:39.309Z,6.82
2019-02-18T00:43:39.313Z,6.89
2019-02-18T00:44:39.290Z,6.85
2019-02-18T00:45:39.279Z,6.84
2019-02-18T00:46:39.271Z,6.87
2019-02-18T00:47:39.270Z,6.87
2019-02-18T00:48:39.276Z,6.84
2019-02-18T00:49:39.240Z,6.84
2019-02-18T00:50:39.226Z,6.77
2019-02-18T00:51:39.234Z,6.72
2019-02-18T00:52:39.202Z,6.72
2019-02-18T00:53:39.202Z,6.75
2019-02-18T00:54:39.231Z,6.77
2019-02-18T00:55:39.168Z,6.69
2019-02-18T00:56:39.224Z,6.74
2019-02-18T00:57:39.156Z,6.81
2019-02-18T00:58:39.135Z,6.81
2019-02-18T00:59:39.136Z,6.82
2019-02-18T01:00:39.119Z,6.75
2019-02-18T01:01:39.127Z,6.85
2019-02-18T01:02:39.118Z,6.88
2019-02-18T01:03:39.110Z,6.87
2019-02-18T01:04:39.101Z,6.93
2019-02-18T01:05:39.072Z,6.93
2019-02-18T01:06:39.052Z,6.87
2019-02-18T01:07:39.044Z,7.00
2019-02-18T01:08:39.075Z,6.84
2019-02-18T01:09:39.028Z,7.00
2019-02-18T01:10:39.011Z,6.87
2019-02-18T01:11:39.001Z,6.97
2019-02-18T01:12:38.984Z,6.87
2019-02-18T01:13:39.006Z,6.95
2019-02-18T01:14:38.974Z,6.87
2019-02-18T01:15:38.952Z,6.85
2019-02-18T01:16:38.942Z,6.89
2019-02-18T01:17:38.932Z,6.93
2019-02-18T01:18:38.918Z,6.88
2019-02-18T01:19:38.933Z,6.89
2019-02-18T01:20:38.938Z,6.89
2019-02-18T01:21:38.893Z,6.95
2019-02-18T01:22:38.887Z,7.02
2019-02-18T01:23:38.868Z,6.97
2019-02-18T01:24:38.876Z,7.00
2019-02-18T01:25:38.851Z,6.97
2019-02-18T01:26:38.833Z,6.96
2019-02-18T01:27:38.838Z,6.96
2019-02-18T01:28:38.811Z,6.96
2019-02-18T01:29:38.837Z,6.97
2019-02-18T01:30:38.791Z,6.97
2019-02-18T01:31:38.787Z,6.99
2019-02-18T01:32:38.766Z,6.99
2019-02-18T01:33:38.759Z,6.95
2019-02-18T01:34:38.765Z,6.95
2019-02-18T01:35:38.738Z,6.87
2019-02-18T01:36:38.756Z,6.87
2019-02-18T01:37:45.813Z,6.92
2019-02-18T01:38:39.704Z,6.87
2019-02-18T01:39:38.705Z,6.87
2019-02-18T01:40:38.688Z,6.85
2019-02-18T01:41:38.716Z,6.88
2019-02-18T01:42:38.680Z,6.84
2019-02-18T01:43:38.654Z,6.84
2019-02-18T01:44:38.649Z,6.82
2019-02-18T01:45:38.635Z,6.84
2019-02-18T01:46:38.621Z,6.84
2019-02-18T01:47:38.667Z,6.81
2019-02-18T01:48:38.599Z,6.84
2019-02-18T01:49:38.589Z,6.79
2019-02-18T01:50:38.613Z,6.79
2019-02-18T01:51:38.559Z,6.81
2019-02-18T01:52:38.561Z,6.77
2019-02-18T01:53:38.546Z,6.81
2019-02-18T01:54:38.560Z,6.74
2019-02-18T01:55:38.528Z,6.77
2019-02-18T01:56:38.521Z,6.72
2019-02-18T01:57:38.512Z,6.66
2019-02-18T01:58:38.485Z,6.70
2019-02-18T01:59:38.972Z,6.72
2019-02-18T02:00:38.465Z,6.70
2019-02-18T02:01:38.456Z,6.75
2019-02-18T02:02:38.441Z,6.72
2019-02-18T02:03:38.435Z,6.74
2019-02-18T02:04:38.418Z,6.74
2019-02-18T02:05:38.432Z,6.67
2019-02-18T02:06:38.403Z,6.60
2019-02-18T02:07:38.386Z,6.79
2019-02-18T02:08:38.381Z,6.66
2019-02-18T02:09:38.368Z,6.66
2019-02-18T02:10:38.377Z,6.67
2019-02-18T02:11:38.350Z,6.67
2019-02-18T02:12:38.344Z,6.62
2019-02-18T02:13:38.322Z,6.63
2019-02-18T02:14:38.320Z,6.59
2019-02-18T02:15:38.318Z,6.69
2019-02-18T02:16:38.333Z,6.60
2019-02-18T02:17:38.275Z,6.59
2019-02-18T02:18:38.270Z,6.56
2019-02-18T02:19:38.263Z,6.56
2019-02-18T02:20:38.280Z,6.59
2019-02-18T02:21:38.251Z,6.48
2019-02-18T02:22:38.241Z,6.51
2019-02-18T02:23:38.211Z,6.52
2019-02-18T02:24:38.200Z,6.56
2019-02-18T02:25:38.218Z,6.56
2019-02-18T02:26:38.209Z,6.41
2019-02-18T02:27:38.175Z,6.41
2019-02-18T02:28:38.170Z,6.44
2019-02-18T02:29:38.151Z,6.36
2019-02-18T02:30:38.147Z,6.42
2019-02-18T02:31:38.162Z,6.42
2019-02-18T02:32:38.117Z,6.39
2019-02-18T02:33:38.111Z,6.51
2019-02-18T02:34:38.119Z,6.45
2019-02-18T02:35:38.093Z,6.48
2019-02-18T02:36:38.092Z,6.39
2019-02-18T02:37:38.146Z,6.44
2019-02-18T02:38:38.056Z,6.42
2019-02-18T02:39:38.046Z,6.41
2019-02-18T02:40:38.062Z,6.45
2019-02-18T02:41:38.029Z,6.51
2019-02-18T02:42:38.041Z,6.46
2019-02-18T02:43:38.010Z,6.41
2019-02-18T02:44:37.997Z,6.46
2019-02-18T02:45:38.005Z,6.41
2019-02-18T02:46:37.994Z,6.41
2019-02-18T02:47:37.958Z,6.44
2019-02-18T02:48:37.964Z,6.39
2019-02-18T02:49:37.932Z,6.39
2019-02-18T02:50:37.923Z,6.42
2019-02-18T02:51:37.911Z,6.38
2019-02-18T02:52:37.945Z,6.24
2019-02-18T02:53:37.938Z,6.28
2019-02-18T02:54:37.883Z,6.28
2019-02-18T02:55:37.869Z,6.31
2019-02-18T02:56:37.861Z,6.22
2019-02-18T02:57:37.870Z,6.20
2019-02-18T02:58:37.835Z,6.20
2019-02-18T02:59:37.842Z,6.24
2019-02-18T03:00:37.823Z,6.22
2019-02-18T03:01:37.801Z,6.22
2019-02-18T03:02:37.793Z,6.12
2019-02-18T03:03:37.781Z,6.22
2019-02-18T03:04:37.818Z,6.14
2019-02-18T03:05:37.757Z,6.16
2019-02-18T03:06:37.754Z,6.16
2019-02-18T03:07:37.738Z,6.11
2019-02-18T03:08:37.736Z,6.17
2019-02-18T03:09:37.718Z,6.12
2019-02-18T03:10:37.725Z,6.05
2019-02-18T03:11:37.924Z,6.11
2019-02-18T03:12:37.699Z,6.07
2019-02-18T03:13:37.675Z,5.99
2019-02-18T03:14:37.667Z,5.93
2019-02-18T03:15:37.666Z,5.94
2019-02-18T03:16:37.642Z,5.98
2019-02-18T03:17:37.653Z,5.98
2019-02-18T03:18:37.629Z,6.05
2019-02-18T03:19:37.616Z,5.98
2019-02-18T03:20:37.648Z,6.02
2019-02-18T03:21:37.588Z,6.07
2019-02-18T03:22:37.613Z,5.98
2019-02-18T03:23:37.571Z,5.98
2019-02-18T03:24:37.576Z,5.99
2019-02-18T03:25:37.555Z,6.01
2019-02-18T03:26:37.544Z,5.97
2019-02-18T03:27:37.525Z,5.91
2019-02-18T03:28:37.606Z,5.93
2019-02-18T03:29:37.509Z,5.97
2019-02-18T03:30:37.491Z,5.90
2019-02-18T03:31:37.492Z,5.79
2019-02-18T03:32:37.475Z,5.72
2019-02-18T03:33:37.496Z,5.73
2019-02-18T03:34:37.471Z,5.69
2019-02-18T03:35:37.454Z,5.72
2019-02-18T03:36:37.452Z,5.62
2019-02-18T03:37:37.421Z,5.72
2019-02-18T03:38:37.417Z,5.72
2019-02-18T03:39:37.420Z,5.71
2019-02-18T03:40:37.411Z,5.68
2019-02-18T03:41:37.371Z,5.68
2019-02-18T03:42:37.378Z,5.62
2019-02-18T03:43:37.354Z,5.68
2019-02-18T03:44:37.376Z,5.64
2019-02-18T03:45:37.338Z,5.59
2019-02-18T03:46:37.323Z,5.57
2019-02-18T03:47:37.313Z,5.51
2019-02-18T03:48:37.294Z,5.62
2019-02-18T03:49:37.296Z,5.61
2019-02-18T03:50:37.300Z,5.51
2019-02-18T03:51:37.265Z,5.62
2019-02-18T03:52:37.261Z,5.59
2019-02-18T03:53:37.266Z,5.65
2019-02-18T03:54:37.230Z,5.71
2019-02-18T03:55:37.257Z,5.64
2019-02-18T03:56:37.213Z,5.61
2019-02-18T03:57:37.203Z,5.71
2019-02-18T03:58:37.198Z,5.72
2019-02-18T03:59:37.177Z,5.68
2019-02-18T04:00:37.196Z,5.73
2019-02-18T04:01:37.176Z,5.69
2019-02-18T04:02:37.177Z,5.68
2019-02-18T04:03:37.147Z,5.64
2019-02-18T04:04:37.128Z,5.65
2019-02-18T04:05:37.114Z,5.62
2019-02-18T04:06:37.140Z,5.57
2019-02-18T04:07:37.109Z,5.64
2019-02-18T04:08:42.988Z,5.62
2019-02-18T04:09:38.067Z,5.59
2019-02-18T04:10:37.061Z,5.71
2019-02-18T04:11:37.053Z,5.69
2019-02-18T04:12:37.073Z,5.72
2019-02-18T04:13:37.030Z,5.64
2019-02-18T04:14:37.015Z,5.61
2019-02-18T04:15:37.009Z,5.69
2019-02-18T04:16:36.999Z,5.62
2019-02-18T04:17:37.020Z,5.64
2019-02-18T04:18:36.988Z,5.68
2019-02-18T04:19:36.972Z,5.62
2019-02-18T04:20:36.947Z,5.64
2019-02-18T04:21:36.941Z,5.62
2019-02-18T04:22:36.955Z,5.57
2019-02-18T04:23:36.942Z,5.54
2019-02-18T04:24:36.913Z,5.53
2019-02-18T04:25:36.907Z,5.61
2019-02-18T04:26:36.895Z,5.51
2019-02-18T04:27:36.877Z,5.65
2019-02-18T04:28:36.898Z,5.51
2019-02-18T04:29:36.850Z,5.56
2019-02-18T04:30:36.845Z,5.59
2019-02-18T04:31:36.833Z,5.54
2019-02-18T04:32:36.825Z,5.54
2019-02-18T04:33:36.826Z,5.46
2019-02-18T04:34:36.823Z,5.53
2019-02-18T04:35:36.789Z,5.51
2019-02-18T04:36:36.798Z,5.53
2019-02-18T04:37:36.793Z,5.43
2019-02-18T04:38:36.826Z,5.47
2019-02-18T04:39:36.773Z,5.39
2019-02-18T04:40:36.733Z,5.36
2019-02-18T04:41:36.725Z,5.43
2019-02-18T04:42:36.718Z,5.39
2019-02-18T04:43:36.711Z,5.38
2019-02-18T04:44:36.725Z,5.41
2019-02-18T04:45:36.696Z,5.32
2019-02-18T04:46:36.672Z,5.36
2019-02-18T04:47:36.665Z,5.44
2019-02-18T04:48:36.661Z,5.35
2019-02-18T04:49:36.655Z,5.35
2019-02-18T04:50:36.644Z,5.33
2019-02-18T04:51:36.626Z,5.36
2019-02-18T04:52:36.629Z,5.29
2019-02-18T04:53:36.599Z,5.25
2019-02-18T04:54:36.593Z,5.28
2019-02-18T04:55:36.600Z,5.32
2019-02-18T04:56:36.564Z,5.23
2019-02-18T04:57:36.563Z,5.12
2019-02-18T04:58:36.539Z,5.08
2019-02-18T04:59:36.526Z,5.20
2019-02-18T05:00:36.561Z,5.04
2019-02-18T05:01:36.504Z,5.00
2019-02-18T05:02:36.498Z,5.02
2019-02-18T05:03:36.492Z,4.99
2019-02-18T05:04:36.497Z,5.07
2019-02-18T05:05:36.495Z,5.08
2019-02-18T05:06:36.470Z,4.97
2019-02-18T05:07:36.443Z,5.07
2019-02-18T05:08:36.432Z,5.10
2019-02-18T05:09:36.421Z,5.11
2019-02-18T05:10:36.410Z,5.07
2019-02-18T05:11:36.436Z,5.02
2019-02-18T05:12:36.398Z,5.02
2019-02-18T05:13:36.373Z,5.04
2019-02-18T05:14:36.368Z,4.90
2019-02-18T05:15:36.360Z,5.04
2019-02-18T05:16:36.343Z,5.04
2019-02-18T05:17:36.364Z,5.05
2019-02-18T05:18:36.331Z,5.11
2019-02-18T05:19:36.314Z,5.02
2019-02-18T05:20:36.822Z,5.02
2019-02-18T05:21:36.289Z,5.11
2019-02-18T05:22:36.333Z,5.05
2019-02-18T05:23:36.268Z,5.11
2019-02-18T05:24:36.258Z,5.02
2019-02-18T05:25:36.246Z,5.10
2019-02-18T05:26:36.235Z,5.00
2019-02-18T05:27:36.286Z,5.10
2019-02-18T05:28:36.234Z,5.08
2019-02-18T05:29:36.199Z,5.00
2019-02-18T05:30:36.193Z,5.04
2019-02-18T05:31:36.183Z,4.97
2019-02-18T05:32:36.189Z,4.99
2019-02-18T05:33:36.201Z,4.94
2019-02-18T05:34:36.146Z,4.78
2019-02-18T05:35:36.143Z,4.75
2019-02-18T05:36:36.130Z,4.74
2019-02-18T05:37:36.112Z,4.63
2019-02-18T05:38:36.107Z,4.70
2019-02-18T05:39:36.131Z,4.73
2019-02-18T05:40:36.083Z,4.73
2019-02-18T05:41:36.103Z,4.73
2019-02-18T05:42:36.068Z,4.78
2019-02-18T05:43:36.054Z,4.68
2019-02-18T05:44:36.072Z,4.74
2019-02-18T05:45:36.033Z,4.77
2019-02-18T05:46:36.023Z,4.78
2019-02-18T05:47:36.015Z,4.78
2019-02-18T05:48:35.999Z,4.80
2019-02-18T05:49:35.992Z,4.71
2019-02-18T05:50:35.993Z,4.62
2019-02-18T05:51:35.961Z,4.68
2019-02-18T05:52:35.959Z,4.59
2019-02-18T05:53:35.947Z,4.58
2019-02-18T05:54:35.958Z,4.63
2019-02-18T05:55:35.960Z,4.59
2019-02-18T05:56:35.917Z,4.50
2019-02-18T05:57:35.900Z,4.50
2019-02-18T05:58:35.892Z,4.58
2019-02-18T05:59:35.890Z,4.53
2019-02-18T06:00:35.892Z,4.52
2019-02-18T06:01:35.872Z,4.45
2019-02-18T06:02:35.844Z,4.44
2019-02-18T06:03:35.840Z,4.38
2019-02-18T06:04:35.821Z,4.40
2019-02-18T06:05:35.817Z,4.37
2019-02-18T06:06:35.845Z,4.32
2019-02-18T06:07:35.795Z,4.30
2019-02-18T06:08:35.790Z,4.24
2019-02-18T06:09:35.806Z,4.26
2019-02-18T06:10:35.757Z,4.28
2019-02-18T06:11:35.752Z,4.23
2019-02-18T06:12:35.753Z,4.34
2019-02-18T06:13:35.727Z,4.40
2019-02-18T06:14:35.714Z,4.35
2019-02-18T06:15:35.706Z,4.40
2019-02-18T06:16:35.701Z,4.42
2019-02-18T06:17:35.711Z,4.37
2019-02-18T06:18:35.679Z,4.37
2019-02-18T06:19:35.661Z,4.28
2019-02-18T06:20:35.664Z,4.20
2019-02-18T06:21:35.637Z,4.14
2019-02-18T06:22:38.371Z,4.17
2019-02-18T06:23:35.617Z,4.19
2019-02-18T06:24:35.604Z,4.14
2019-02-18T06:25:35.613Z,4.06
2019-02-18T06:26:35.600Z,4.01
2019-02-18T06:27:35.574Z,4.16
2019-02-18T06:28:35.582Z,4.12
2019-02-18T06:29:35.588Z,4.13
2019-02-18T06:30:35.540Z,4.16
2019-02-18T06:31:35.539Z,4.13
2019-02-18T06:32:35.522Z,4.20
2019-02-18T06:33:35.559Z,4.16
2019-02-18T06:34:35.500Z,4.16
2019-02-18T06:35:35.522Z,4.17
2019-02-18T06:36:35.527Z,4.13
2019-02-18T06:37:35.479Z,4.13
2019-02-18T06:38:35.461Z,4.13
2019-02-18T06:39:41.279Z,4.13
2019-02-18T06:40:36.439Z,4.10
2019-02-18T06:41:35.433Z,4.16
2019-02-18T06:42:35.409Z,4.19
2019-02-18T06:43:35.393Z,4.12
2019-02-18T06:44:35.406Z,4.28
2019-02-18T06:45:35.373Z,4.16
2019-02-18T06:46:35.370Z,4.17
2019-02-18T06:47:35.353Z,4.35
2019-02-18T06:48:35.341Z,4.32
2019-02-18T06:49:35.408Z,4.37
2019-02-18T06:50:35.322Z,4.41
2019-02-18T06:51:35.306Z,4.53
2019-02-18T06:52:35.298Z,4.56
2019-02-18T06:53:35.289Z,4.66
2019-02-18T06:54:35.275Z,4.67
2019-02-18T06:55:35.299Z,4.67
2019-02-18T06:56:35.258Z,4.67
2019-02-18T06:57:35.239Z,4.66
2019-02-18T06:58:35.235Z,4.71
2019-02-18T06:59:35.219Z,4.78
2019-02-18T07:00:35.249Z,4.74
2019-02-18T07:01:35.200Z,4.77
2019-02-18T07:02:35.193Z,4.78
2019-02-18T07:03:35.174Z,4.77
2019-02-18T07:04:35.191Z,4.74
2019-02-18T07:05:35.184Z,4.84
2019-02-18T07:06:35.189Z,4.82
2019-02-18T07:07:35.143Z,4.82
2019-02-18T07:08:35.134Z,4.89
2019-02-18T07:09:35.134Z,4.86
2019-02-18T07:10:35.106Z,4.90
2019-02-18T07:11:35.116Z,4.87
2019-02-18T07:12:35.089Z,5.10
2019-02-18T07:13:35.066Z,5.10
2019-02-18T07:14:35.057Z,5.10
2019-02-18T07:15:35.043Z,5.08
2019-02-18T07:16:35.067Z,5.05
2019-02-18T07:17:35.053Z,5.11
2019-02-18T07:18:35.038Z,5.08
2019-02-18T07:19:35.002Z,5.11
2019-02-18T07:20:35.052Z,5.10
2019-02-18T07:21:34.986Z,5.10
2019-02-18T07:22:35.030Z,5.12
2019-02-18T07:23:34.962Z,5.12
2019-02-18T07:24:34.949Z,5.10
2019-02-18T07:25:34.939Z,5.21
2019-02-18T07:26:34.925Z,5.25
2019-02-18T07:27:34.965Z,5.23
2019-02-18T07:28:34.931Z,5.23
2019-02-18T07:29:34.896Z,5.26
2019-02-18T07:30:34.889Z,5.30
2019-02-18T07:31:34.877Z,5.29
2019-02-18T07:32:34.897Z,5.25
2019-02-18T07:33:34.856Z,5.41
2019-02-18T07:34:34.835Z,5.39
2019-02-18T07:35:34.828Z,5.43
2019-02-18T07:36:35.174Z,5.38
2019-02-18T07:37:34.807Z,5.50
2019-02-18T07:38:34.818Z,5.59
2019-02-18T07:39:34.786Z,5.53
2019-02-18T07:40:34.780Z,5.59
2019-02-18T07:41:34.762Z,5.68
2019-02-18T07:42:34.750Z,5.66
2019-02-18T07:43:34.848Z,5.71
2019-02-18T07:44:34.752Z,5.64
2019-02-18T07:45:34.720Z,5.79
2019-02-18T07:46:34.708Z,5.72
2019-02-18T07:47:34.698Z,5.79
2019-02-18T07:48:36.714Z,5.82
2019-02-18T07:49:34.699Z,5.86
2019-02-18T07:50:34.722Z,5.79
2019-02-18T07:51:34.657Z,5.87
2019-02-18T07:52:34.661Z,5.94
2019-02-18T07:53:34.657Z,5.97
2019-02-18T07:54:34.624Z,6.12
2019-02-18T07:55:34.614Z,6.02
2019-02-18T07:56:34.606Z,6.20
2019-02-18T07:57:34.601Z,6.19
2019-02-18T07:58:34.606Z,6.22
2019-02-18T07:59:34.565Z,6.36
2019-02-18T08:00:34.556Z,6.41
2019-02-18T08:01:34.564Z,6.49
2019-02-18T08:02:34.543Z,6.42
2019-02-18T08:03:34.531Z,6.59
2019-02-18T08:04:34.537Z,6.57
2019-02-18T08:05:34.507Z,6.59
2019-02-18T08:06:34.489Z,6.63
2019-02-18T08:07:34.507Z,6.79
2019-02-18T08:08:34.492Z,6.74
2019-02-18T08:09:34.460Z,6.77
2019-02-18T08:10:34.449Z,6.85
2019-02-18T08:11:34.439Z,6.82
2019-02-18T08:12:34.473Z,6.87
2019-02-18T08:13:34.441Z,6.89
2019-02-18T08:14:34.425Z,6.92
2019-02-18T08:15:34.402Z,7.00
2019-02-18T08:16:34.391Z,6.96
2019-02-18T08:17:34.371Z,7.02
2019-02-18T08:18:34.382Z,6.97
2019-02-18T08:19:34.358Z,7.02
2019-02-18T08:20:34.361Z,7.00
2019-02-18T08:21:34.337Z,7.07
2019-02-18T08:22:34.324Z,7.14
2019-02-18T08:23:34.352Z,7.18
2019-02-18T08:24:34.300Z,7.20
2019-02-18T08:25:34.290Z,7.20
2019-02-18T08:26:34.283Z,7.21
2019-02-18T08:27:34.270Z,7.28
2019-02-18T08:28:34.262Z,7.29
2019-02-18T08:29:34.265Z,7.42
2019-02-18T08:30:34.235Z,7.40
2019-02-18T08:31:34.243Z,7.42
2019-02-18T08:32:34.236Z,7.43
2019-02-18T08:33:34.253Z,7.40
2019-02-18T08:34:34.188Z,7.48
2019-02-18T08:35:34.179Z,7.51
2019-02-18T08:36:34.167Z,7.43
2019-02-18T08:37:34.173Z,7.51
2019-02-18T08:38:34.150Z,7.48
2019-02-18T08:39:34.158Z,7.45
2019-02-18T08:40:34.126Z,7.48
2019-02-18T08:41:34.130Z,7.51
2019-02-18T08:42:34.306Z,7.51
2019-02-18T08:43:34.100Z,7.58
2019-02-18T08:44:34.112Z,7.70
2019-02-18T08:45:34.071Z,7.70
2019-02-18T08:46:34.070Z,7.73
2019-02-18T08:47:34.049Z,7.75
2019-02-18T08:48:34.043Z,7.73
2019-02-18T08:49:34.034Z,7.82
2019-02-18T08:50:34.045Z,7.93
2019-02-18T08:51:34.007Z,8.00
2019-02-18T08:52:33.996Z,8.13
2019-02-18T08:53:33.986Z,8.06
2019-02-18T08:54:34.009Z,8.16
2019-02-18T08:55:33.989Z,8.15
2019-02-18T08:56:33.952Z,8.12
2019-02-18T08:57:33.949Z,8.20
2019-02-18T08:58:33.937Z,8.13
2019-02-18T08:59:33.957Z,8.19
2019-02-18T09:00:33.964Z,8.30
2019-02-18T09:01:33.896Z,8.28
2019-02-18T09:02:33.883Z,8.33
2019-02-18T09:03:33.879Z,8.24
2019-02-18T09:04:33.880Z,8.42
2019-02-18T09:05:33.883Z,8.44
2019-02-18T09:06:33.854Z,8.41
2019-02-18T09:07:33.839Z,8.49
2019-02-18T09:08:33.824Z,8.48
2019-02-18T09:09:33.819Z,8.63
2019-02-18T09:10:34.210Z,8.58
2019-02-18T09:11:33.811Z,8.56
2019-02-18T09:12:33.784Z,8.58
2019-02-18T09:13:33.769Z,8.63
2019-02-18T09:14:33.755Z,8.61
2019-02-18T09:15:33.801Z,8.69
2019-02-18T09:16:33.735Z,8.71
2019-02-18T09:17:33.730Z,8.85
2019-02-18T09:18:33.717Z,8.89
2019-02-18T09:19:33.698Z,8.89
2019-02-18T09:20:33.697Z,8.95
2019-02-18T09:21:33.698Z,9.02
2019-02-18T09:22:33.697Z,9.13
2019-02-18T09:23:33.664Z,9.08
2019-02-18T09:24:33.648Z,9.06
2019-02-18T09:25:33.638Z,9.14
2019-02-18T09:26:33.702Z,9.29
2019-02-18T09:27:33.628Z,9.29
2019-02-18T09:28:33.629Z,9.23
2019-02-18T09:29:33.591Z,9.29
2019-02-18T09:30:33.583Z,9.47
2019-02-18T09:31:33.573Z,9.44
2019-02-18T09:32:33.584Z,9.40
2019-02-18T09:33:33.560Z,9.46
2019-02-18T09:34:33.544Z,9.59
2019-02-18T09:35:33.536Z,9.47
2019-02-18T09:36:33.511Z,9.58
2019-02-18T09:37:33.533Z,9.65
2019-02-18T09:38:33.493Z,9.73
2019-02-18T09:39:33.491Z,9.73
2019-02-18T09:40:43.948Z,9.72
2019-02-18T09:41:34.454Z,9.77
2019-02-18T09:42:33.452Z,9.83
2019-02-18T09:43:33.476Z,9.94
2019-02-18T09:44:33.440Z,9.99
2019-02-18T09:45:33.421Z,9.97
2019-02-18T09:46:33.425Z,10.02
2019-02-18T09:47:33.400Z,10.04
2019-02-18T09:48:33.420Z,10.19
2019-02-18T09:49:33.384Z,10.17
2019-02-18T09:50:33.412Z,10.13
2019-02-18T09:51:33.351Z,10.10
2019-02-18T09:52:33.357Z,10.15
2019-02-18T09:53:33.335Z,10.15
2019-02-18T09:54:33.324Z,10.20
2019-02-18T09:55:33.365Z,10.19
2019-02-18T09:56:33.314Z,10.23
2019-02-18T09:57:33.290Z,10.25
2019-02-18T09:58:33.280Z,10.25
2019-02-18T09:59:33.270Z,10.31
2019-02-18T10:00:33.256Z,10.30
2019-02-18T10:01:33.267Z,10.35
2019-02-18T10:02:33.227Z,10.38
2019-02-18T10:03:33.226Z,10.40
2019-02-18T10:04:33.207Z,10.42
2019-02-18T10:05:33.204Z,10.44
2019-02-18T10:06:33.242Z,10.38
2019-02-18T10:07:33.177Z,10.44
2019-02-18T10:08:33.169Z,10.60
2019-02-18T10:09:33.160Z,10.63
2019-02-18T10:10:33.195Z,10.54
2019-02-18T10:11:33.187Z,10.57
2019-02-18T10:12:33.125Z,10.54
2019-02-18T10:13:33.119Z,10.57
2019-02-18T10:14:33.098Z,10.56
2019-02-18T10:15:33.094Z,10.68
2019-02-18T10:16:33.109Z,10.72
2019-02-18T10:17:33.064Z,10.69
2019-02-18T10:18:33.086Z,10.81
2019-02-18T10:19:33.041Z,10.72
2019-02-18T10:20:33.033Z,10.74
2019-02-18T10:21:33.039Z,10.78
2019-02-18T10:22:33.034Z,10.82
2019-02-18T10:23:33.007Z,10.86
2019-02-18T10:24:32.989Z,10.89
2019-02-18T10:25:32.982Z,10.86
2019-02-18T10:26:32.964Z,10.96
2019-02-18T10:27:32.986Z,11.08
2019-02-18T10:28:32.953Z,11.08
2019-02-18T10:29:32.932Z,11.11
2019-02-18T10:30:32.933Z,11.23
2019-02-18T10:31:32.918Z,11.17
2019-02-18T10:32:32.904Z,11.14
2019-02-18T10:33:32.916Z,11.15
2019-02-18T10:34:32.878Z,11.19
2019-02-18T10:35:32.874Z,11.27
2019-02-18T10:36:32.865Z,11.30
2019-02-18T10:37:32.865Z,11.32
2019-02-18T10:38:32.840Z,11.35
2019-02-18T10:39:32.823Z,11.40
2019-02-18T10:40:32.816Z,11.48
2019-02-18T10:41:32.831Z,11.50
2019-02-18T10:42:32.795Z,11.51
2019-02-18T10:43:32.944Z,11.51
2019-02-18T10:44:32.783Z,11.59
2019-02-18T10:45:32.765Z,11.55
2019-02-18T10:46:32.747Z,11.54
2019-02-18T10:47:32.754Z,11.66
2019-02-18T10:48:32.746Z,11.54
2019-02-18T10:49:32.727Z,11.66
2019-02-18T10:50:32.763Z,11.65
2019-02-18T10:51:32.705Z,11.66
2019-02-18T10:52:32.725Z,11.65
2019-02-18T10:53:32.685Z,11.68
2019-02-18T10:54:32.667Z,11.78
2019-02-18T10:55:32.653Z,11.83
2019-02-18T10:56:32.675Z,11.86
2019-02-18T10:57:32.640Z,11.75
2019-02-18T10:58:32.653Z,11.83
2019-02-18T10:59:32.611Z,11.81
2019-02-18T11:00:32.607Z,11.87
2019-02-18T11:01:32.587Z,11.94
2019-02-18T11:02:32.576Z,11.90
2019-02-18T11:03:32.593Z,11.84
2019-02-18T11:04:32.570Z,11.91
2019-02-18T11:05:32.539Z,11.95
2019-02-18T11:06:32.553Z,11.97
2019-02-18T11:07:32.551Z,12.00
2019-02-18T11:08:32.507Z,11.95
2019-02-18T11:09:32.503Z,12.06
2019-02-18T11:10:32.489Z,12.06
2019-02-18T11:11:32.498Z,12.09
2019-02-18T11:12:32.471Z,12.17
2019-02-18T11:13:32.455Z,12.12
2019-02-18T11:14:32.441Z,12.15
2019-02-18T11:15:32.434Z,12.18
2019-02-18T11:16:32.454Z,12.21
2019-02-18T11:17:38.932Z,12.25
2019-02-18T11:18:33.418Z,12.27
2019-02-18T11:19:32.395Z,12.28
2019-02-18T11:20:32.388Z,12.27
2019-02-18T11:21:32.394Z,12.37
2019-02-18T11:22:32.383Z,12.35
2019-02-18T11:23:32.349Z,12.36
2019-02-18T11:24:32.342Z,12.40
2019-02-18T11:25:32.324Z,12.36
2019-02-18T11:26:32.317Z,12.37
2019-02-18T11:27:32.333Z,12.43
2019-02-18T11:28:32.290Z,12.55
2019-02-18T11:29:32.279Z,12.36
2019-02-18T11:30:32.285Z,12.45
2019-02-18T11:31:32.299Z,12.42
2019-02-18T11:32:32.251Z,12.54
2019-02-18T11:33:32.232Z,12.57
2019-02-18T11:34:32.224Z,12.53
2019-02-18T11:35:32.239Z,12.60
2019-02-18T11:36:32.220Z,12.62
2019-02-18T11:37:32.216Z,12.61
2019-02-18T11:38:32.181Z,12.70
2019-02-18T11:39:32.183Z,12.62
2019-02-18T11:40:32.334Z,12.67
2019-02-18T11:41:32.175Z,12.73
2019-02-18T11:42:32.168Z,12.78
2019-02-18T11:43:32.123Z,12.79
2019-02-18T11:44:32.121Z,12.82
2019-02-18T11:45:32.111Z,12.85
2019-02-18T11:46:32.096Z,12.90
2019-02-18T11:47:32.122Z,12.87
2019-02-18T11:48:32.093Z,12.86
2019-02-18T11:49:32.057Z,12.85
2019-02-18T11:50:32.049Z,12.91
2019-02-18T11:51:32.044Z,12.94
2019-02-18T11:52:32.073Z,12.93
2019-02-18T11:53:32.052Z,12.97
2019-02-18T11:54:32.009Z,13.01
2019-02-18T11:55:31.998Z,12.95
2019-02-18T11:56:31.981Z,13.00
2019-02-18T11:57:31.979Z,13.01
2019-02-18T11:58:31.971Z,13.15
2019-02-18T11:59:31.971Z,13.12
2019-02-18T12:00:31.999Z,13.05
2019-02-18T12:01:31.924Z,13.12
2019-02-18T12:02:31.927Z,13.12
2019-02-18T12:03:31.907Z,13.08
2019-02-18T12:04:31.921Z,13.15
2019-02-18T12:05:31.881Z,13.16
2019-02-18T12:06:31.879Z,13.12
2019-02-18T12:07:31.882Z,13.19
2019-02-18T12:08:31.882Z,13.20
2019-02-18T12:09:31.836Z,13.27
2019-02-18T12:10:31.829Z,13.15
2019-02-18T12:11:37.863Z,13.27
2019-02-18T12:12:32.834Z,13.30
2019-02-18T12:13:31.798Z,13.28
2019-02-18T12:14:31.809Z,13.35
2019-02-18T12:15:31.771Z,13.38
2019-02-18T12:16:31.763Z,13.30
2019-02-18T12:17:31.748Z,13.37
2019-02-18T12:18:31.738Z,13.49
2019-02-18T12:19:31.755Z,13.50
2019-02-18T12:20:31.759Z,13.53
2019-02-18T12:21:31.709Z,13.49
2019-02-18T12:22:31.702Z,13.49
2019-02-18T12:23:31.686Z,13.53
2019-02-18T12:24:31.678Z,13.52
2019-02-18T12:25:31.699Z,13.57
2019-02-18T12:26:31.655Z,13.62
2019-02-18T12:27:32.240Z,13.65
2019-02-18T12:28:31.636Z,13.59
2019-02-18T12:29:31.616Z,13.60
2019-02-18T12:30:32.509Z,13.62
2019-02-18T12:31:31.597Z,13.62
2019-02-18T12:32:31.589Z,13.60
2019-02-18T12:33:31.571Z,13.70
2019-02-18T12:34:31.577Z,13.60
2019-02-18T12:35:33.625Z,13.71
2019-02-18T12:36:31.564Z,13.71
2019-02-18T12:37:31.545Z,13.70
2019-02-18T12:38:31.550Z,13.74
2019-02-18T12:39:31.512Z,13.71
2019-02-18T12:40:31.503Z,13.85
2019-02-18T12:41:31.489Z,13.79
2019-02-18T12:42:31.537Z,13.79
2019-02-18T12:43:31.495Z,13.85
2019-02-18T12:44:31.479Z,13.86
2019-02-18T12:45:31.445Z,13.90
2019-02-18T12:46:31.428Z,13.90
2019-02-18T12:47:31.417Z,13.87
2019-02-18T12:48:31.453Z,13.86
2019-02-18T12:49:31.434Z,13.93
2019-02-18T12:50:31.388Z,14.00
2019-02-18T12:51:31.380Z,13.95
2019-02-18T12:52:31.369Z,13.93
2019-02-18T12:53:31.373Z,13.90
2019-02-18T12:54:31.389Z,13.90
2019-02-18T12:55:31.705Z,13.87
2019-02-18T12:56:31.327Z,13.79
2019-02-18T12:57:31.308Z,13.79
2019-02-18T12:58:31.300Z,13.89
2019-02-18T12:59:31.641Z,13.86
2019-02-18T13:00:31.300Z,13.87
2019-02-18T13:01:31.267Z,13.86
2019-02-18T13:02:31.255Z,13.85
2019-02-18T13:03:31.242Z,13.95
2019-02-18T13:04:32.045Z,13.89
2019-02-18T13:05:31.254Z,13.87
2019-02-18T13:06:31.213Z,13.87
2019-02-18T13:07:31.203Z,13.86
2019-02-18T13:08:31.194Z,13.86
2019-02-18T13:09:31.180Z,13.85
2019-02-18T13:10:34.801Z,13.86
2019-02-18T13:11:31.156Z,13.85